createdAt,value
2022-10-04T00:02:34.355Z,1.50
2022-10-04T00:05:09.042Z,1.55
2022-10-04T00:07:51.355Z,1.80
2022-10-04T00:10:22.829Z,1.48
2022-10-04T00:12:57.834Z,1.20
2022-10-04T00:15:40.510Z,1.48
2022-10-04T00:18:38.775Z,1.52
2022-10-04T00:21:13.390Z,2.03
2022-10-04T00:23:48.485Z,1.90
2022-10-04T00:26:54.093Z,1.85
2022-10-04T00:29:33.811Z,1.83
2022-10-04T00:32:32.622Z,1.48
2022-10-04T00:35:01.473Z,1.95
2022-10-04T00:37:50.322Z,1.77
2022-10-04T00:40:22.535Z,1.45
2022-10-04T00:42:59.806Z,1.63
2022-10-04T00:45:37.087Z,1.70
2022-10-04T00:48:31.642Z,1.65
2022-10-04T00:51:05.646Z,1.20
2022-10-04T00:53:46.675Z,1.30
2022-10-04T00:56:22.164Z,1.48
2022-10-04T00:59:13.987Z,1.70
2022-10-04T01:01:48.163Z,1.40
2022-10-04T01:04:29.949Z,1.50
2022-10-04T01:07:14.434Z,1.30
2022-10-04T01:09:51.482Z,1.30
2022-10-04T01:12:37.830Z,1.30
2022-10-04T01:15:10.626Z,1.55
2022-10-04T01:18:08.555Z,1.15
2022-10-04T01:20:41.280Z,1.25
2022-10-04T01:23:24.334Z,1.45
2022-10-04T01:25:53.923Z,1.30
2022-10-04T01:28:22.843Z,1.48
2022-10-04T01:30:54.386Z,1.50
2022-10-04T01:33:25.858Z,1.20
2022-10-04T01:35:54.987Z,1.60
2022-10-04T01:38:25.334Z,1.30
2022-10-04T01:41:00.707Z,1.15
2022-10-04T01:43:34.846Z,1.67
2022-10-04T01:46:14.788Z,1.23
2022-10-04T01:48:48.038Z,1.15
2022-10-04T01:51:23.439Z,1.27
2022-10-04T01:53:58.290Z,1.40
2022-10-04T01:56:33.096Z,1.40
2022-10-04T01:59:04.815Z,1.20
2022-10-04T02:01:41.017Z,1.30
2022-10-04T02:04:22.894Z,1.10
2022-10-04T02:07:04.251Z,1.65
2022-10-04T02:09:44.086Z,1.13
2022-10-04T02:12:18.629Z,1.30
2022-10-04T02:14:53.383Z,1.40
2022-10-04T02:17:28.067Z,1.20
2022-10-04T02:19:58.446Z,1.13
2022-10-04T02:22:27.893Z,1.00
2022-10-04T02:24:59.397Z,1.30
2022-10-04T02:27:30.386Z,1.10
2022-10-04T02:30:12.667Z,1.08
2022-10-04T02:33:00.860Z,1.10
2022-10-04T02:35:35.947Z,1.23
2022-10-04T02:38:15.111Z,0.98
2022-10-04T02:40:52.564Z,1.25
2022-10-04T02:43:26.626Z,1.10
2022-10-04T02:46:04.616Z,1.17
2022-10-04T02:48:41.984Z,1.48
2022-10-04T02:51:26.373Z,1.10
2022-10-04T02:54:16.373Z,0.80
2022-10-04T02:56:53.495Z,1.20
2022-10-04T02:59:23.769Z,0.93
2022-10-04T03:01:56.261Z,1.08
2022-10-04T03:04:28.349Z,1.10
2022-10-04T03:07:08.048Z,1.00
2022-10-04T03:09:39.277Z,1.30
2022-10-04T03:12:14.342Z,1.00
2022-10-04T03:14:44.088Z,0.80
2022-10-04T03:17:16.531Z,1.17
2022-10-04T03:19:48.890Z,1.02
2022-10-04T03:22:18.774Z,0.98
2022-10-04T03:24:50.698Z,1.13
2022-10-04T03:27:27.207Z,1.08
2022-10-04T03:29:59.636Z,1.08
2022-10-04T03:32:31.055Z,1.23
2022-10-04T03:35:09.273Z,1.10
2022-10-04T03:37:52.502Z,1.10
2022-10-04T03:40:27.336Z,1.00
2022-10-04T03:43:01.327Z,1.15
2022-10-04T03:45:34.770Z,1.10
2022-10-04T03:48:07.739Z,1.55
2022-10-04T03:50:41.341Z,1.30
2022-10-04T03:53:17.310Z,1.70
2022-10-04T03:56:03.984Z,1.20
2022-10-04T03:58:35.205Z,1.20
2022-10-04T04:01:15.287Z,1.63
2022-10-04T04:03:55.464Z,1.30
2022-10-04T04:06:26.094Z,1.65
2022-10-04T04:08:58.329Z,1.70
2022-10-04T04:11:29.209Z,1.42
2022-10-04T04:14:07.039Z,1.23
2022-10-04T04:16:42.466Z,1.38
2022-10-04T04:19:15.724Z,1.65
2022-10-04T04:21:47.545Z,1.40
2022-10-04T04:24:29.377Z,1.20
2022-10-04T04:27:04.178Z,1.40
2022-10-04T04:29:48.050Z,1.30
2022-10-04T04:32:23.506Z,1.50
2022-10-04T04:35:01.217Z,1.40
2022-10-04T04:37:32.180Z,1.20
2022-10-04T04:40:15.977Z,1.30
2022-10-04T04:42:46.045Z,1.27
2022-10-04T04:45:23.197Z,1.73
2022-10-04T04:47:57.510Z,1.20
2022-10-04T04:50:31.254Z,1.50
2022-10-04T04:53:06.856Z,1.63
2022-10-04T04:56:02.397Z,1.45
2022-10-04T04:58:41.678Z,1.73
2022-10-04T05:01:25.949Z,1.50
2022-10-04T05:04:06.111Z,1.60
2022-10-04T05:06:38.090Z,1.42
2022-10-04T05:09:26.031Z,1.58
2022-10-04T05:12:03.210Z,1.33
2022-10-04T05:14:33.737Z,1.75
2022-10-04T05:17:09.139Z,1.75
2022-10-04T05:19:41.199Z,1.40
2022-10-04T05:22:16.829Z,1.63
2022-10-04T05:24:49.571Z,1.83
2022-10-04T05:27:26.798Z,1.65
2022-10-04T05:30:06.611Z,1.80
2022-10-04T05:32:49.668Z,1.60
2022-10-04T05:35:19.928Z,1.52
2022-10-04T05:38:03.794Z,1.48
2022-10-04T05:40:45.001Z,1.80
2022-10-04T05:43:33.636Z,1.45
2022-10-04T05:46:24.283Z,1.63
2022-10-04T05:49:02.525Z,1.50
2022-10-04T05:51:34.141Z,1.40
2022-10-04T05:54:04.442Z,1.40
2022-10-04T05:57:20.900Z,1.30
2022-10-04T06:00:11.910Z,1.33
2022-10-04T06:03:15.265Z,1.30
2022-10-04T06:05:52.339Z,1.10
2022-10-04T06:08:32.701Z,0.90
2022-10-04T06:11:10.937Z,1.20
2022-10-04T06:14:09.868Z,1.27
2022-10-04T06:17:33.265Z,0.90
2022-10-04T06:20:15.256Z,1.10
2022-10-04T06:22:50.657Z,0.80
2022-10-04T06:25:26.879Z,1.05
2022-10-04T06:28:08.353Z,0.82
2022-10-04T06:31:02.679Z,0.85
2022-10-04T06:33:50.892Z,0.80
2022-10-04T06:36:57.644Z,0.70
2022-10-04T06:39:57.920Z,0.73
2022-10-04T06:43:00.220Z,0.70
2022-10-04T06:45:51.579Z,0.60
2022-10-04T06:48:59.087Z,0.70
2022-10-04T06:52:02.021Z,0.63
2022-10-04T06:54:49.659Z,0.82
2022-10-04T06:57:48.338Z,0.80
2022-10-04T07:00:22.312Z,0.60
2022-10-04T07:02:59.737Z,0.70
2022-10-04T07:05:33.396Z,0.47
2022-10-04T07:08:31.285Z,0.77
2022-10-04T07:11:12.323Z,0.82
2022-10-04T07:13:51.026Z,1.50
2022-10-04T07:16:41.822Z,0.93
2022-10-04T07:19:35.309Z,0.90
2022-10-04T07:22:19.000Z,0.70
2022-10-04T07:24:59.565Z,0.60
2022-10-04T07:27:34.001Z,0.60
2022-10-04T07:30:06.262Z,0.82
2022-10-04T07:32:38.996Z,0.70
2022-10-04T07:35:20.736Z,0.70
2022-10-04T07:37:59.460Z,0.73
2022-10-04T07:40:32.104Z,0.95
2022-10-04T07:43:08.850Z,0.50
2022-10-04T07:45:42.544Z,0.80
2022-10-04T07:48:18.027Z,0.70
2022-10-04T07:50:52.201Z,0.65
2022-10-04T07:53:28.376Z,0.80
2022-10-04T07:56:03.740Z,0.85
2022-10-04T07:58:47.701Z,0.70
2022-10-04T08:01:33.010Z,0.70
2022-10-04T08:04:21.421Z,0.70
2022-10-04T08:06:59.361Z,0.63
2022-10-04T08:09:47.636Z,0.70
2022-10-04T08:12:27.036Z,0.68
2022-10-04T08:15:24.058Z,0.70
2022-10-04T08:17:58.814Z,0.63
2022-10-04T08:20:38.362Z,0.68
2022-10-04T08:23:41.160Z,0.63
2022-10-04T08:26:35.817Z,0.60
2022-10-04T08:29:42.012Z,0.60
2022-10-04T08:32:39.514Z,0.70
2022-10-04T08:35:29.347Z,0.70
2022-10-04T08:38:49.667Z,0.63
2022-10-04T08:41:55.504Z,0.85
2022-10-04T08:45:06.604Z,0.65
2022-10-04T08:48:19.883Z,0.70
2022-10-04T08:51:21.601Z,0.68
2022-10-04T08:54:13.670Z,0.60
2022-10-04T08:56:59.822Z,0.60
2022-10-04T09:00:06.276Z,0.70
2022-10-04T09:03:24.643Z,0.40
2022-10-04T09:06:12.491Z,0.45
2022-10-04T09:09:15.395Z,0.60
2022-10-04T09:12:11.156Z,0.60
2022-10-04T09:15:05.502Z,0.50
2022-10-04T09:17:48.119Z,0.35
2022-10-04T09:20:38.648Z,0.50
2022-10-04T09:23:23.152Z,0.52
2022-10-04T09:26:11.751Z,0.70
2022-10-04T09:29:12.439Z,0.75
2022-10-04T09:32:27.057Z,0.50
2022-10-04T09:35:32.258Z,0.40
2022-10-04T09:39:01.220Z,0.60
2022-10-04T09:41:54.082Z,0.60
2022-10-04T09:44:52.648Z,0.52
2022-10-04T09:47:41.362Z,0.47
2022-10-04T09:50:43.145Z,0.50
2022-10-04T09:53:44.794Z,0.43
2022-10-04T09:56:50.434Z,0.60
2022-10-04T09:59:48.074Z,0.40
2022-10-04T10:02:55.239Z,0.50
2022-10-04T10:05:57.575Z,0.43
2022-10-04T10:08:35.076Z,0.60
2022-10-04T10:11:29.484Z,0.60
2022-10-04T10:14:31.913Z,0.80
2022-10-04T10:17:16.358Z,0.70
2022-10-04T10:20:17.065Z,0.80
2022-10-04T10:23:16.787Z,1.00
2022-10-04T10:26:06.172Z,1.10
2022-10-04T10:29:16.717Z,1.15
2022-10-04T10:32:15.448Z,1.30
2022-10-04T10:35:17.864Z,1.20
2022-10-04T10:38:23.261Z,1.15
2022-10-04T10:41:16.930Z,1.20
2022-10-04T10:44:04.939Z,1.45
2022-10-04T10:46:48.356Z,1.52
2022-10-04T10:49:34.304Z,1.80
2022-10-04T10:52:40.371Z,1.50
2022-10-04T10:55:33.494Z,1.38
2022-10-04T10:58:50.295Z,1.60
2022-10-04T11:01:42.778Z,2.03
2022-10-04T11:04:39.866Z,1.70
2022-10-04T11:07:46.775Z,2.00
2022-10-04T11:11:03.789Z,1.83
2022-10-04T11:14:12.914Z,1.90
2022-10-04T11:17:23.801Z,1.95
2022-10-04T11:20:28.112Z,2.00
2022-10-04T11:23:43.367Z,2.45
2022-10-04T11:26:48.503Z,2.35
2022-10-04T11:29:41.436Z,2.58
2022-10-04T11:32:42.327Z,3.30
2022-10-04T11:35:48.018Z,3.30
2022-10-04T11:38:50.622Z,3.03
2022-10-04T11:41:41.773Z,2.60
2022-10-04T11:47:40.250Z,2.50
2022-10-04T11:50:25.230Z,2.50
2022-10-04T11:53:19.490Z,2.65
2022-10-04T11:56:21.950Z,2.50
2022-10-04T11:59:15.149Z,2.50
2022-10-04T12:02:03.004Z,1.73
2022-10-04T12:05:16.186Z,2.03
2022-10-04T12:07:56.674Z,1.75
2022-10-04T12:10:30.295Z,2.00
2022-10-04T12:13:26.977Z,1.95
2022-10-04T12:16:29.987Z,2.28
2022-10-04T12:19:51.820Z,1.80
2022-10-04T12:22:44.965Z,2.00
2022-10-04T12:25:43.615Z,1.90
2022-10-04T12:28:45.777Z,2.20
2022-10-04T12:31:24.352Z,2.22
2022-10-04T12:34:00.298Z,2.28
2022-10-04T12:37:01.732Z,2.30
2022-10-04T12:39:52.814Z,1.67
2022-10-04T12:42:37.882Z,1.88
2022-10-04T12:45:27.951Z,2.22
2022-10-04T12:48:25.448Z,2.22
2022-10-04T12:51:09.961Z,1.90
2022-10-04T12:53:54.457Z,1.98
2022-10-04T12:56:44.169Z,2.35
2022-10-04T12:59:41.157Z,2.10
2022-10-04T13:02:37.977Z,2.00
2022-10-04T13:05:14.695Z,2.60
2022-10-04T13:08:05.200Z,2.08
2022-10-04T13:10:50.305Z,2.08
2022-10-04T13:13:42.703Z,1.80
2022-10-04T13:19:19.042Z,1.60
2022-10-04T13:22:10.005Z,1.90
2022-10-04T13:24:58.776Z,2.35
2022-10-04T13:27:37.772Z,2.35
2022-10-04T13:30:10.250Z,3.78
2022-10-04T13:32:53.462Z,6.20
2022-10-04T13:35:29.379Z,1.70
2022-10-04T13:38:24.455Z,1.52
2022-10-04T13:41:11.673Z,1.70
2022-10-04T13:44:15.689Z,2.65
2022-10-04T13:46:59.266Z,1.98
2022-10-04T13:49:38.889Z,5.68
2022-10-04T13:52:39.143Z,3.88
2022-10-04T13:55:47.653Z,2.95
2022-10-04T13:58:31.899Z,2.58
2022-10-04T14:01:34.777Z,1.98
2022-10-04T14:04:52.600Z,2.30
2022-10-04T14:07:42.522Z,2.50
2022-10-04T14:10:52.023Z,2.08
2022-10-04T14:14:11.977Z,2.30
2022-10-04T14:17:17.653Z,3.83
2022-10-04T14:20:26.582Z,3.42
2022-10-04T14:23:26.025Z,3.47
2022-10-04T14:26:35.465Z,2.95
2022-10-04T14:29:53.946Z,2.85
2022-10-04T14:37:18.666Z,4.63
2022-10-04T14:40:35.957Z,3.92
2022-10-04T14:51:41.480Z,4.28
2022-10-04T14:55:06.340Z,3.40
2022-10-04T14:57:59.551Z,3.85
2022-10-04T15:00:59.635Z,3.10
2022-10-04T15:03:46.515Z,3.72
2022-10-04T15:06:44.032Z,2.70
2022-10-04T15:09:37.284Z,3.10
2022-10-04T15:13:09.427Z,3.00
2022-10-04T15:15:53.370Z,3.15
2022-10-04T15:18:36.213Z,3.30
2022-10-04T15:21:13.482Z,3.05
2022-10-04T15:23:46.330Z,3.22
2022-10-04T15:26:45.591Z,3.33
2022-10-04T15:29:25.098Z,2.72
2022-10-04T15:32:14.787Z,2.60
2022-10-04T15:34:50.706Z,2.35
2022-10-04T15:37:27.958Z,2.65
2022-10-04T15:40:20.596Z,2.40
2022-10-04T15:43:20.274Z,2.65
2022-10-04T15:46:02.898Z,2.17
2022-10-04T15:49:06.087Z,2.00
2022-10-04T15:51:46.952Z,2.30
2022-10-04T15:54:42.161Z,1.80
2022-10-04T15:57:26.043Z,2.15
2022-10-04T15:59:58.625Z,2.75
2022-10-04T16:02:53.674Z,3.30
2022-10-04T16:05:36.868Z,2.85
2022-10-04T16:08:41.808Z,2.90
2022-10-04T16:11:38.444Z,2.42
2022-10-04T16:14:29.650Z,2.90
2022-10-04T16:17:30.216Z,3.72
2022-10-04T16:20:29.650Z,2.80
2022-10-04T16:23:30.021Z,2.65
2022-10-04T16:26:01.963Z,2.50
2022-10-04T16:29:00.909Z,3.10
2022-10-04T16:31:47.519Z,3.00
2022-10-04T16:34:37.230Z,4.00
2022-10-04T16:37:18.220Z,4.68
2022-10-04T16:40:02.793Z,3.50
2022-10-04T16:42:52.627Z,4.57
2022-10-04T16:45:37.888Z,3.88
2022-10-04T16:48:25.369Z,3.08
2022-10-04T16:51:24.721Z,3.28
2022-10-04T16:54:01.144Z,2.90
2022-10-04T16:57:11.320Z,3.28
2022-10-04T16:59:54.570Z,3.17
2022-10-04T17:02:56.524Z,3.67
2022-10-04T17:05:48.831Z,5.72
2022-10-04T17:08:50.119Z,5.97
2022-10-04T17:11:44.953Z,5.93
2022-10-04T17:14:58.964Z,6.72
2022-10-04T17:17:44.369Z,6.45
2022-10-04T17:20:24.322Z,4.80
2022-10-04T17:23:14.270Z,3.85
2022-10-04T17:25:57.613Z,4.20
2022-10-04T17:28:31.966Z,5.30
2022-10-04T17:31:10.274Z,4.97
2022-10-04T17:33:54.039Z,4.80
2022-10-04T17:36:40.721Z,5.07
2022-10-04T17:39:34.182Z,4.60
2022-10-04T17:42:20.961Z,4.60
2022-10-04T17:45:06.635Z,5.55
2022-10-04T17:47:58.133Z,5.05
2022-10-04T17:50:52.841Z,3.92
2022-10-04T17:53:43.939Z,2.85
2022-10-04T17:56:14.215Z,2.92
2022-10-04T17:58:59.395Z,2.72
2022-10-04T18:01:35.297Z,3.20
2022-10-04T18:04:10.929Z,1.98
2022-10-04T18:06:44.206Z,1.90
2022-10-04T18:09:21.212Z,1.50
2022-10-04T18:11:56.027Z,1.70
2022-10-04T18:14:49.233Z,1.70
2022-10-04T18:17:28.316Z,1.65
2022-10-04T18:20:14.002Z,2.10
2022-10-04T18:22:50.481Z,2.28
2022-10-04T18:25:23.830Z,1.88
2022-10-04T18:28:02.454Z,1.50
2022-10-04T18:30:59.244Z,1.67
2022-10-04T18:33:46.735Z,1.80
2022-10-04T18:36:18.672Z,1.60
2022-10-04T18:39:00.714Z,1.50
2022-10-04T18:41:50.622Z,1.58
2022-10-04T18:44:22.448Z,1.38
2022-10-04T18:46:58.041Z,1.20
2022-10-04T18:49:30.610Z,1.90
2022-10-04T18:52:22.992Z,1.70
2022-10-04T18:55:02.380Z,1.50
2022-10-04T18:57:58.407Z,1.40
2022-10-04T19:00:50.818Z,1.52
2022-10-04T19:03:31.799Z,1.35
2022-10-04T19:06:08.715Z,1.08
2022-10-04T19:08:47.398Z,1.80
2022-10-04T19:11:21.043Z,1.50
2022-10-04T19:13:56.515Z,1.55
2022-10-04T19:16:42.422Z,1.73
2022-10-04T19:19:29.628Z,1.40
2022-10-04T19:22:03.966Z,1.40
2022-10-04T19:25:20.863Z,1.65
2022-10-04T19:27:52.267Z,1.10
2022-10-04T19:30:24.340Z,1.13
2022-10-04T19:33:05.809Z,1.30
2022-10-04T19:35:51.119Z,1.38
2022-10-04T19:38:34.131Z,1.40
2022-10-04T19:41:12.618Z,1.30
2022-10-04T19:43:53.500Z,1.50
2022-10-04T19:46:36.357Z,1.60
2022-10-04T19:49:15.303Z,1.30
2022-10-04T19:51:51.591Z,1.17
2022-10-04T19:54:29.921Z,1.50
2022-10-04T19:57:03.078Z,1.30
2022-10-04T19:59:40.799Z,1.50
2022-10-04T20:02:11.228Z,1.67
2022-10-04T20:04:42.367Z,1.63
2022-10-04T20:07:24.148Z,1.40
2022-10-04T20:10:07.871Z,1.65
2022-10-04T20:12:39.310Z,1.77
2022-10-04T20:15:45.322Z,1.70
2022-10-04T20:18:53.952Z,1.80
2022-10-04T20:21:33.755Z,1.80
2022-10-04T20:24:03.802Z,2.10
2022-10-04T20:27:01.488Z,1.67
2022-10-04T20:30:01.933Z,1.80
2022-10-04T20:32:56.376Z,1.85
2022-10-04T20:36:00.608Z,1.73
2022-10-04T20:38:45.026Z,1.52
2022-10-04T20:42:09.829Z,1.98
2022-10-04T20:44:58.428Z,2.10
2022-10-04T20:47:40.704Z,2.00
2022-10-04T20:50:17.741Z,2.30
2022-10-04T20:52:48.467Z,2.10
2022-10-04T20:55:27.709Z,1.98
2022-10-04T20:58:01.154Z,2.45
2022-10-04T21:00:35.621Z,2.05
2022-10-04T21:03:18.951Z,2.00
2022-10-04T21:06:04.365Z,2.30
2022-10-04T21:08:33.368Z,2.75
2022-10-04T21:11:18.345Z,2.35
2022-10-04T21:13:58.558Z,2.60
2022-10-04T21:16:39.380Z,2.15
2022-10-04T21:19:44.517Z,2.28
2022-10-04T21:22:34.058Z,3.10
2022-10-04T21:25:03.777Z,2.95
2022-10-04T21:27:34.658Z,2.50
2022-10-04T21:30:07.920Z,2.38
2022-10-04T21:32:38.109Z,2.83
2022-10-04T21:35:08.763Z,2.58
2022-10-04T21:37:41.026Z,2.40
2022-10-04T21:40:14.774Z,2.50
2022-10-04T21:42:43.367Z,2.80
2022-10-04T21:45:13.594Z,2.55
2022-10-04T21:47:42.150Z,2.33
2022-10-04T21:50:11.205Z,2.45
2022-10-04T21:52:40.961Z,2.67
2022-10-04T21:55:10.970Z,2.70
2022-10-04T21:57:39.511Z,2.70
2022-10-04T22:00:09.410Z,2.53
2022-10-04T22:02:39.495Z,2.45
2022-10-04T22:05:11.086Z,3.30
2022-10-04T22:07:39.762Z,2.67
2022-10-04T22:10:08.917Z,3.03
2022-10-04T22:12:37.443Z,3.63
2022-10-04T22:15:06.850Z,2.50
2022-10-04T22:17:36.849Z,3.30
2022-10-04T22:20:08.142Z,2.78
2022-10-04T22:22:39.765Z,2.45
2022-10-04T22:25:16.728Z,2.70
2022-10-04T22:27:46.917Z,2.47
2022-10-04T22:30:23.731Z,2.80
2022-10-04T22:32:52.521Z,2.67
2022-10-04T22:35:23.884Z,2.30
2022-10-04T22:37:52.435Z,2.83
2022-10-04T22:40:23.328Z,2.65
2022-10-04T22:42:53.759Z,2.80
2022-10-04T22:45:26.029Z,3.05
2022-10-04T22:47:59.243Z,2.47
2022-10-04T22:50:34.120Z,2.50
2022-10-04T22:53:09.311Z,2.88
2022-10-04T22:55:37.947Z,2.63
2022-10-04T22:58:06.618Z,3.42
2022-10-04T23:00:35.012Z,2.63
2022-10-04T23:03:04.257Z,2.72
2022-10-04T23:05:34.579Z,2.90
2022-10-04T23:08:07.258Z,3.13
2022-10-04T23:10:36.168Z,3.28
2022-10-04T23:13:04.560Z,2.53
2022-10-04T23:15:33.101Z,2.55
2022-10-04T23:18:01.886Z,2.97
2022-10-04T23:20:34.693Z,2.63
2022-10-04T23:23:04.623Z,2.80
2022-10-04T23:25:34.010Z,2.97
2022-10-04T23:28:13.984Z,2.88
2022-10-04T23:31:06.472Z,2.72
2022-10-04T23:33:37.133Z,3.28
2022-10-04T23:36:12.127Z,2.63
2022-10-04T23:38:48.375Z,3.08
2022-10-04T23:41:19.570Z,2.88
2022-10-04T23:43:49.647Z,3.03
2022-10-04T23:46:21.360Z,2.63
2022-10-04T23:48:51.520Z,3.58
2022-10-04T23:51:22.805Z,2.85
2022-10-04T23:53:52.199Z,2.65
2022-10-04T23:56:25.312Z,3.10
2022-10-04T23:58:56.386Z,2.75
